Terminal Aerodrome Forecast
Issued by NWS

Home | Current Version | Previous Version | Text Only | Print | Product List | Glossary Off
Versions: 1 2 3 4 5 6 7 8 9 10 11 12 13 14 15 16 17 18 19 20 21 22 23 24 25 26 27 28 29 30 31

000
FTUS45 KGGW 221100
TAFGDV
TAF
KGDV 221121Z 2212/2312 05007KT P6SM VCSH SCT011 OVC040
      TEMPO 2212/2215 BKN011
     FM221800 06011KT P6SM -SHRA OVC040
     FM230300 07013KT 4SM RA OVC040
     FM230600 07015KT 2SM +RA OVC025
      AMD LTD TO CLD VIS AND WIND=

USA.gov is the U.S. government's official web portal to all federal, state and local government web resources and services.